Time;durP1;ratioP1;P1;durP2;ratioP2;P2;SDS_P1;SDS_P2;PMS_P1;PMS_P2;Temp;Humidity;BMP_temperature;BMP_pressure;BME280_temperature;BME280_humidity;BME280_pressure;Samples;Min_cycle;Max_cycle;Signal;HPM_P1;HPM_P2
2024/01/31 00:02:08;;;;;;;6.90;1.70;;;;;;;5.93;100.00;103375.81;5089039;28;20273;-39
2024/01/31 00:04:37;;;;;;;11.33;2.20;;;;;;;6.06;100.00;103401.59;5089354;28;20430;-38
2024/01/31 00:07:02;;;;;;;8.32;1.77;;;;;;;6.06;100.00;103396.22;5081449;28;20032;-38
2024/01/31 00:09:27;;;;;;;4.57;1.60;;;;;;;6.06;100.00;103396.22;5075875;28;20127;-38
2024/01/31 00:11:52;;;;;;;5.43;1.40;;;;;;;6.04;100.00;103398.16;5076104;28;20059;-38
2024/01/31 00:14:18;;;;;;;6.37;1.93;;;;;;;5.93;100.00;103386.56;5075385;28;20040;-38
2024/01/31 00:16:44;;;;;;;6.43;1.98;;;;;;;6.03;100.00;103400.00;5075426;28;20024;-38
2024/01/31 00:19:10;;;;;;;7.35;2.20;;;;;;;6.00;100.00;103405.66;5075845;28;20025;-39
2024/01/31 00:21:35;;;;;;;7.40;1.92;;;;;;;6.02;100.00;103410.91;5075337;28;20388;-39
2024/01/31 00:24:00;;;;;;;6.07;2.40;;;;;;;6.04;100.00;103419.66;5075606;28;20094;-39
2024/01/31 00:26:26;;;;;;;8.60;2.60;;;;;;;6.03;100.00;103417.97;5075274;28;20028;-39
2024/01/31 00:28:51;;;;;;;6.20;2.10;;;;;;;5.97;100.00;103402.41;5075425;28;20055;-39
2024/01/31 00:31:17;;;;;;;9.32;2.45;;;;;;;6.01;100.00;103426.16;5076065;28;20029;-39
2024/01/31 00:33:43;;;;;;;6.03;1.95;;;;;;;6.02;100.00;103424.34;5075980;28;20032;-39
2024/01/31 00:36:08;;;;;;;6.38;2.00;;;;;;;5.93;100.00;103413.41;5075121;28;20477;-39
2024/01/31 00:38:34;;;;;;;6.15;1.80;;;;;;;5.91;100.00;103419.91;5075384;28;20063;-38
2024/01/31 00:40:59;;;;;;;8.73;2.20;;;;;;;5.98;100.00;103433.66;5076006;28;20449;-39
2024/01/31 00:43:24;;;;;;;5.30;1.83;;;;;;;5.99;100.00;103443.41;5074913;28;20028;-39
2024/01/31 00:45:50;;;;;;;9.73;2.30;;;;;;;5.97;100.00;103445.38;5074984;28;20028;-39
2024/01/31 00:48:15;;;;;;;11.67;2.43;;;;;;;5.96;100.00;103444.53;5075588;28;20065;-39
2024/01/31 00:50:41;;;;;;;6.73;2.57;;;;;;;5.81;100.00;103421.72;5075212;28;20250;-39
2024/01/31 00:53:06;;;;;;;7.63;2.13;;;;;;;5.87;100.00;103432.75;5075524;28;20038;-39
2024/01/31 00:55:31;;;;;;;8.03;2.20;;;;;;;5.94;100.00;103436.59;5075103;28;20128;-39
2024/01/31 00:57:57;;;;;;;5.03;2.00;;;;;;;5.92;100.00;103437.75;5074690;28;20028;-39
2024/01/31 01:00:23;;;;;;;7.43;1.90;;;;;;;5.93;100.00;103445.66;5074851;28;20034;-39
2024/01/31 01:02:49;;;;;;;;;;;;;;;6.00;100.00;103455.84;5075133;28;20024;-39
2024/01/31 01:05:14;;;;;;;5.80;2.00;;;;;;;5.86;100.00;103435.56;5074649;28;20376;-39
2024/01/31 01:07:41;;;;;;;6.37;2.33;;;;;;;5.92;100.00;103448.47;5074557;28;20024;-39
2024/01/31 01:10:11;;;;;;;7.22;2.47;;;;;;;5.87;100.00;103454.22;5074580;28;20032;-39
2024/01/31 01:12:37;;;;;;;4.97;2.25;;;;;;;5.83;100.00;103442.06;5075067;28;20515;-39
2024/01/31 01:15:02;;;;;;;7.68;3.03;;;;;;;5.81;100.00;103444.03;5074753;28;20024;-39
2024/01/31 01:17:27;;;;;;;7.85;2.50;;;;;;;5.86;100.00;103452.53;5075050;28;20070;-39
2024/01/31 01:19:53;;;;;;;7.03;2.07;;;;;;;5.74;100.00;103424.06;5073885;28;20115;-39
2024/01/31 01:22:18;;;;;;;8.27;2.10;;;;;;;5.86;100.00;103460.59;5074858;28;20029;-38
2024/01/31 01:24:43;;;;;;;6.50;2.10;;;;;;;5.84;100.00;103451.81;5075119;28;20036;-39
2024/01/31 01:27:09;;;;;;;7.13;1.80;;;;;;;5.82;100.00;103459.16;5074929;28;20020;-39
2024/01/31 01:29:34;;;;;;;5.77;1.90;;;;;;;5.84;100.00;103456.31;5074755;28;20434;-39
2024/01/31 01:32:00;;;;;;;7.28;1.65;;;;;;;5.76;100.00;103440.91;5074282;28;20393;-39
2024/01/31 01:34:25;;;;;;;6.60;1.80;;;;;;;5.77;100.00;103445.28;5074098;28;20035;-39
2024/01/31 01:36:50;;;;;;;7.63;1.70;;;;;;;5.82;100.00;103459.16;5073918;28;20131;-39
2024/01/31 01:39:16;;;;;;;5.93;1.47;;;;;;;5.82;100.00;103448.41;5073902;28;20028;-39
2024/01/31 01:41:41;;;;;;;7.83;1.90;;;;;;;5.81;100.00;103457.47;5073877;28;20025;-39
2024/01/31 01:44:06;;;;;;;4.27;1.57;;;;;;;5.81;100.00;103457.47;5073751;28;20032;-39
2024/01/31 01:46:34;;;;;;;5.70;1.40;;;;;;;5.80;100.00;103455.75;5074285;28;20042;-39
2024/01/31 01:49:00;;;;;;;4.97;1.48;;;;;;;5.79;100.00;103450.50;5073800;28;20449;-39
2024/01/31 01:51:26;;;;;;;5.03;1.50;;;;;;;5.74;100.00;103442.88;5073946;28;20032;-39
2024/01/31 01:53:52;;;;;;;7.55;2.00;;;;;;;5.72;100.00;103444.00;5073875;28;20108;-39
2024/01/31 01:56:18;;;;;;;6.00;1.98;;;;;;;5.81;100.00;103457.47;5074178;28;20048;-39
2024/01/31 01:58:44;;;;;;;;;;;;;;;5.86;100.00;103457.91;5074178;28;20025;-39
2024/01/31 02:01:12;;;;;;;5.10;1.90;;;;;;;5.65;100.00;103430.25;5074103;28;19915;-39
2024/01/31 02:03:37;;;;;;;5.05;1.63;;;;;;;5.80;100.00;103445.00;5073726;28;20420;-39
2024/01/31 02:06:03;;;;;;;7.00;2.33;;;;;;;5.80;100.00;103446.84;5074247;28;20060;-39
2024/01/31 02:08:29;;;;;;;6.13;1.70;;;;;;;5.78;100.00;103452.34;5073440;28;20032;-39
2024/01/31 02:10:55;;;;;;;7.80;1.77;;;;;;;5.78;100.00;103441.63;5073927;28;20335;-39
2024/01/31 02:13:21;;;;;;;6.80;1.73;;;;;;;5.75;100.00;103447.25;5073492;28;20481;-39
2024/01/31 02:15:57;;;;;;;9.85;2.15;;;;;;;5.75;100.00;103452.63;5073702;28;20124;-39
2024/01/31 02:18:24;;;;;;;6.07;1.58;;;;;;;5.72;100.00;103444.00;5073849;28;20028;-39
2024/01/31 02:20:49;;;;;;;4.18;1.40;;;;;;;5.71;100.00;103444.97;5073407;28;20039;-39
2024/01/31 02:23:15;;;;;;;2.78;1.25;;;;;;;5.74;100.00;103442.03;5073579;28;20103;-39
2024/01/31 02:25:41;;;;;;;4.60;1.27;;;;;;;5.66;100.00;103431.94;5074110;28;20060;-38
2024/01/31 02:28:06;;;;;;;3.15;1.10;;;;;;;5.71;100.00;103439.59;5074221;28;20115;-38
2024/01/31 02:30:31;;;;;;;4.83;1.60;;;;;;;5.70;100.00;103438.75;5073196;28;20029;-38
2024/01/31 02:32:57;;;;;;;4.60;1.43;;;;;;;5.65;100.00;103430.25;5073328;28;20028;-38
2024/01/31 02:35:23;;;;;;;3.47;1.10;;;;;;;5.71;100.00;103445.84;5073627;28;20085;-39
2024/01/31 02:37:49;;;;;;;3.95;1.38;;;;;;;5.71;100.00;103450.34;5073491;28;20427;-39
2024/01/31 02:40:15;;;;;;;5.33;1.10;;;;;;;5.71;100.00;103450.34;5073087;28;20032;-39
2024/01/31 02:42:41;;;;;;;5.03;1.30;;;;;;;5.59;100.00;103442.38;5072896;28;20028;-39
2024/01/31 02:45:07;;;;;;;7.72;1.88;;;;;;;5.68;100.00;103448.78;5073179;28;20078;-39
2024/01/31 02:47:33;;;;;;;5.70;1.30;;;;;;;5.61;100.00;103442.25;5073547;28;20028;-38
2024/01/31 02:49:59;;;;;;;4.47;1.40;;;;;;;5.67;100.00;103444.41;5072945;28;20036;-38
2024/01/31 02:52:25;;;;;;;4.55;1.45;;;;;;;5.66;100.00;103448.06;5073297;28;20107;-38
2024/01/31 02:54:51;;;;;;;5.87;1.60;;;;;;;5.66;100.00;103442.69;5073165;28;20072;-38
2024/01/31 02:57:17;;;;;;;9.10;1.60;;;;;;;5.61;100.00;103437.75;5073665;28;20072;-39
2024/01/31 02:59:42;;;;;;;4.97;2.30;;;;;;;5.56;100.00;103425.69;5072672;28;20044;-39
2024/01/31 03:02:07;;;;;;;3.90;1.43;;;;;;;5.59;100.00;103430.81;5073165;28;20032;-38
2024/01/31 03:04:33;;;;;;;4.83;1.87;;;;;;;5.59;100.00;103441.53;5073656;28;20294;-38
2024/01/31 03:06:58;;;;;;;5.30;1.53;;;;;;;5.56;100.00;103426.56;5072679;28;20147;-38
2024/01/31 03:09:24;;;;;;;5.13;1.87;;;;;;;5.54;100.00;103423.16;5073350;28;20040;-39
2024/01/31 03:11:49;;;;;;;4.97;1.57;;;;;;;5.53;100.00;103421.47;5072665;28;20025;-39
2024/01/31 03:14:14;;;;;;;3.63;1.50;;;;;;;5.52;100.00;103413.56;5072823;28;20258;-39
2024/01/31 03:16:39;;;;;;;2.93;1.40;;;;;;;5.52;100.00;103424.28;5073400;28;20024;-38
2024/01/31 03:19:06;;;;;;;5.00;1.63;;;;;;;5.48;100.00;103423.69;5073055;28;20078;-38
2024/01/31 03:21:31;;;;;;;;;;;;;;;5.57;100.00;103416.69;5074030;28;20115;-39
2024/01/31 03:23:56;;;;;;;5.00;1.40;;;;;;;5.54;100.00;103403.50;5072687;28;20430;-39
2024/01/31 03:26:22;;;;;;;11.17;1.80;;;;;;;5.46;100.00;103397.97;5073571;28;20035;-39
2024/01/31 03:28:47;;;;;;;3.57;1.60;;;;;;;5.45;100.00;103393.59;5073506;28;20031;-39
2024/01/31 03:31:12;;;;;;;5.37;1.90;;;;;;;5.50;100.00;103402.09;5072979;28;20104;-39
2024/01/31 03:33:38;;;;;;;5.13;1.60;;;;;;;5.44;100.00;103400.78;5072604;28;20032;-39
2024/01/31 03:36:03;;;;;;;3.40;1.60;;;;;;;5.49;100.00;103411.13;5072531;28;20051;-39
2024/01/31 03:38:29;;;;;;;3.25;1.48;;;;;;;5.47;100.00;103405.91;5073119;28;20036;-39
2024/01/31 03:40:54;;;;;;;4.83;1.50;;;;;;;5.44;100.00;103390.06;5073164;28;20025;-39
2024/01/31 03:43:19;;;;;;;4.33;1.43;;;;;;;5.49;100.00;103397.69;5076426;28;20108;-39
2024/01/31 03:45:45;;;;;;;6.67;1.93;;;;;;;5.47;100.00;103397.84;5077291;28;20107;-39
2024/01/31 03:48:10;;;;;;;6.33;2.00;;;;;;;5.40;100.00;103384.09;5077044;28;20028;-39
2024/01/31 03:50:35;;;;;;;6.07;1.83;;;;;;;5.38;100.00;103390.59;5076979;28;20127;-39
2024/01/31 03:53:01;;;;;;;8.03;1.90;;;;;;;5.39;100.00;103376.19;5076974;28;20025;-39
2024/01/31 03:55:26;;;;;;;4.90;1.70;;;;;;;5.46;100.00;103400.66;5076401;28;20056;-39
2024/01/31 03:57:51;;;;;;;6.60;1.97;;;;;;;5.32;100.00;103375.00;5077182;28;20035;-39
2024/01/31 04:00:17;;;;;;;4.30;1.80;;;;;;;5.43;100.00;103399.09;5076478;28;20032;-39
2024/01/31 04:02:42;;;;;;;6.97;2.15;;;;;;;5.40;100.00;103394.00;5076693;28;20025;-39
2024/01/31 04:05:10;;;;;;;5.30;1.87;;;;;;;5.39;100.00;103390.47;5076062;28;20032;-39
2024/01/31 04:07:36;;;;;;;6.03;1.88;;;;;;;5.39;100.00;103392.28;5076554;28;20020;-39
2024/01/31 04:10:03;;;;;;;5.07;1.97;;;;;;;5.40;100.00;103392.16;5076088;28;20368;-39
2024/01/31 04:12:28;;;;;;;5.22;2.13;;;;;;;5.39;100.00;103385.09;5076052;28;20031;-39
2024/01/31 04:14:54;;;;;;;6.60;2.17;;;;;;;5.39;100.00;103384.25;5075882;28;20115;-39
2024/01/31 04:17:19;;;;;;;5.43;2.00;;;;;;;5.37;100.00;103380.84;5075959;28;20028;-39
2024/01/31 04:19:48;;;;;;;7.07;2.25;;;;;;;5.37;100.00;103379.03;5075863;28;20528;-39
2024/01/31 04:22:14;;;;;;;5.72;2.30;;;;;;;5.37;100.00;103386.22;5076189;28;20385;-39
2024/01/31 04:24:40;;;;;;;;;;;;;;;5.46;100.00;103392.59;5076459;28;20366;-39
2024/01/31 04:27:05;;;;;;;4.67;1.93;;;;;;;5.37;100.00;103388.91;5075791;28;19931;-39
2024/01/31 04:29:30;;;;;;;5.30;2.50;;;;;;;5.28;100.00;103374.47;5075420;28;20275;-39
2024/01/31 04:31:57;;;;;;;6.67;2.80;;;;;;;5.36;100.00;103390.72;5075685;28;20078;-39
2024/01/31 04:34:22;;;;;;;6.50;3.00;;;;;;;5.35;100.00;103386.34;5075522;28;20120;-39
2024/01/31 04:36:48;;;;;;;6.70;2.55;;;;;;;5.35;100.00;103380.97;5075357;28;20111;-39
2024/01/31 04:39:13;;;;;;;5.90;2.38;;;;;;;5.36;100.00;103388.03;5075567;28;20028;-39
2024/01/31 04:41:39;;;;;;;9.33;2.77;;;;;;;5.35;100.00;103380.97;5075805;28;20032;-39
2024/01/31 04:44:04;;;;;;;13.73;3.75;;;;;;;5.25;100.00;103366.66;5075427;28;20073;-39
2024/01/31 04:46:30;;;;;;;9.63;3.67;;;;;;;5.33;100.00;103382.09;5075728;28;20097;-39
2024/01/31 04:48:55;;;;;;;8.52;3.33;;;;;;;5.35;100.00;103391.72;5075377;28;20020;-39
2024/01/31 04:51:20;;;;;;;8.83;3.10;;;;;;;5.34;100.00;103389.16;5075694;28;20036;-39
2024/01/31 04:53:46;;;;;;;7.60;3.40;;;;;;;5.35;100.00;103383.66;5075750;28;20036;-39
2024/01/31 04:56:11;;;;;;;9.07;3.57;;;;;;;5.30;100.00;103377.84;5076363;28;20453;-39
2024/01/31 04:58:37;;;;;;;8.38;3.92;;;;;;;5.36;100.00;103381.81;5075152;28;20039;-39
2024/01/31 05:01:03;;;;;;;7.10;3.70;;;;;;;5.37;100.00;103384.38;5074967;28;20033;-39
2024/01/31 05:03:29;;;;;;;7.20;3.72;;;;;;;5.34;100.00;103371.22;5075610;28;20100;-39
2024/01/31 05:05:54;;;;;;;11.13;4.27;;;;;;;5.36;100.00;103379.97;5074837;28;20498;-39
2024/01/31 05:08:19;;;;;;;8.73;4.10;;;;;;;5.37;100.00;103375.50;5074663;28;20285;-39
2024/01/31 05:10:45;;;;;;;10.83;4.60;;;;;;;5.34;100.00;103362.34;5075081;28;20107;-39
2024/01/31 05:13:12;;;;;;;7.40;4.25;;;;;;;5.37;100.00;103376.34;5075770;28;20116;-39
2024/01/31 05:15:37;;;;;;;8.48;4.72;;;;;;;5.37;100.00;103379.03;5074699;28;20033;-39
2024/01/31 05:18:03;;;;;;;12.75;5.47;;;;;;;5.36;100.00;103374.63;5075123;28;20079;-39
2024/01/31 05:20:29;;;;;;;8.53;4.67;;;;;;;5.30;100.00;103367.13;5074456;28;20020;-39
2024/01/31 05:22:55;;;;;;;11.85;5.07;;;;;;;5.29;100.00;103357.38;5074988;28;20650;-39
2024/01/31 05:25:20;;;;;;;;;;;;;;;5.43;100.00;103370.44;5075393;28;20028;-39
2024/01/31 05:27:46;;;;;;;8.80;4.50;;;;;;;5.38;100.00;103374.50;5074602;28;19939;-39
2024/01/31 05:30:11;;;;;;;11.10;5.13;;;;;;;5.40;100.00;103377.88;5074510;28;20273;-39
2024/01/31 05:32:37;;;;;;;9.55;5.25;;;;;;;5.35;100.00;103375.59;5074232;28;20116;-39
2024/01/31 05:35:03;;;;;;;12.23;5.83;;;;;;;5.39;100.00;103377.03;5074655;28;20021;-39
2024/01/31 05:37:28;;;;;;;10.90;5.60;;;;;;;5.29;100.00;103373.47;5074902;28;20024;-39
2024/01/31 05:39:54;;;;;;;13.73;6.57;;;;;;;5.32;100.00;103381.25;5074413;28;20032;-39
2024/01/31 05:42:19;;;;;;;10.80;6.93;;;;;;;5.33;100.00;103385.63;5074545;28;20500;-39
2024/01/31 05:44:44;;;;;;;12.73;6.47;;;;;;;5.32;100.00;103381.25;5074262;28;20275;-39
2024/01/31 05:47:10;;;;;;;11.93;6.17;;;;;;;5.32;100.00;103378.59;5074547;28;20465;-39
2024/01/31 05:49:35;;;;;;;12.97;6.53;;;;;;;5.33;100.00;103382.09;5074237;28;20051;-39
2024/01/31 05:52:00;;;;;;;11.60;6.87;;;;;;;5.28;100.00;103376.28;5073858;28;20027;-39
2024/01/31 05:54:26;;;;;;;11.20;6.80;;;;;;;5.33;100.00;103385.63;5073524;28;20028;-39
2024/01/31 05:56:52;;;;;;;12.43;6.90;;;;;;;5.30;100.00;103377.84;5074355;28;20029;-39
2024/01/31 05:59:17;;;;;;;10.82;6.85;;;;;;;5.34;100.00;103373.91;5073956;28;20032;-39
2024/01/31 06:01:43;;;;;;;12.03;7.13;;;;;;;5.31;100.00;103373.31;5073981;28;20024;-39
2024/01/31 06:04:09;;;;;;;13.63;7.10;;;;;;;5.31;100.00;103381.38;5073170;28;20067;-39
2024/01/31 06:06:34;;;;;;;;;;;;;;;5.37;100.00;103386.22;5074346;28;20063;-39
2024/01/31 06:08:59;;;;;;;11.48;7.60;;;;;;;5.31;100.00;103381.38;5073794;28;19951;-39
2024/01/31 06:11:25;;;;;;;12.17;8.37;;;;;;;5.30;100.00;103393.94;5073803;28;20028;-39
2024/01/31 06:13:50;;;;;;;12.80;7.57;;;;;;;5.29;100.00;103380.66;5073752;28;20032;-39
2024/01/31 06:16:15;;;;;;;15.53;8.17;;;;;;;5.20;100.00;103360.84;5074038;28;20086;-39
2024/01/31 06:18:41;;;;;;;12.20;7.57;;;;;;;5.19;100.00;103359.16;5073414;28;20033;-39
2024/01/31 06:21:06;;;;;;;13.47;7.37;;;;;;;5.27;100.00;103358.47;5073632;28;20040;-39
2024/01/31 06:23:31;;;;;;;12.63;7.10;;;;;;;5.18;100.00;103352.09;5074055;28;20025;-39
2024/01/31 06:26:01;;;;;;;12.53;8.10;;;;;;;5.21;100.00;103348.28;5073312;28;20472;-39
2024/01/31 06:28:26;;;;;;;12.13;7.90;;;;;;;5.28;100.00;103357.50;5073710;28;20033;-39
2024/01/31 06:30:59;;;;;;;14.80;8.23;;;;;;;5.27;100.00;103345.94;5072942;28;20513;-38
2024/01/31 06:33:29;;;;;;;16.55;8.35;;;;;;;5.28;100.00;103342.25;5073600;28;20109;-39
2024/01/31 06:35:55;;;;;;;11.75;7.85;;;;;;;5.24;100.00;103329.25;5072974;28;20062;-39
2024/01/31 06:38:20;;;;;;;12.38;9.02;;;;;;;5.21;100.00;103324.16;5073649;28;20107;-38
2024/01/31 06:40:46;;;;;;;13.43;8.97;;;;;;;5.26;100.00;103335.31;5072933;28;20029;-40
2024/01/31 06:43:11;;;;;;;13.43;8.70;;;;;;;5.25;100.00;103321.06;5073297;28;20028;-39
2024/01/31 06:45:38;;;;;;;11.73;8.30;;;;;;;5.27;100.00;103318.22;5073175;28;20357;-39
2024/01/31 06:48:04;;;;;;;14.27;8.13;;;;;;;5.25;100.00;103320.22;5072947;28;20028;-39
2024/01/31 06:50:29;;;;;;;14.55;9.05;;;;;;;5.22;100.00;103325.84;5073407;28;20021;-39
2024/01/31 06:52:54;;;;;;;11.85;9.45;;;;;;;5.15;100.00;103312.13;5073261;28;20025;-39
2024/01/31 06:55:20;;;;;;;17.27;10.07;;;;;;;5.19;100.00;103326.97;5073079;28;20040;-39
2024/01/31 06:57:45;;;;;;;13.83;9.27;;;;;;;5.15;100.00;103322.84;5073473;28;20024;-39
2024/01/31 07:00:11;;;;;;;13.07;8.70;;;;;;;5.21;100.00;103329.50;5072598;28;20443;-39
2024/01/31 07:02:37;;;;;;;15.15;9.98;;;;;;;5.23;100.00;103339.13;5072884;28;20480;-39
2024/01/31 07:05:04;;;;;;;16.42;9.88;;;;;;;5.21;100.00;103351.81;5072831;28;20028;-39
2024/01/31 07:07:29;;;;;;;13.43;9.45;;;;;;;5.24;100.00;103377.53;5073529;28;20027;-39
2024/01/31 07:09:55;;;;;;;16.10;10.32;;;;;;;5.24;100.00;103380.22;5072481;28;20016;-39
2024/01/31 07:12:20;;;;;;;13.63;10.27;;;;;;;5.19;100.00;103377.94;5073079;28;20104;-39
2024/01/31 07:14:45;;;;;;;19.07;10.30;;;;;;;5.27;100.00;103402.28;5072396;28;20461;-39
2024/01/31 07:17:11;;;;;;;14.77;10.97;;;;;;;5.26;100.00;103403.25;5074621;28;20384;-38
2024/01/31 07:19:36;;;;;;;14.83;10.17;;;;;;;5.28;100.00;103412.03;5076477;28;20519;-39
2024/01/31 07:22:01;;;;;;;12.93;10.63;;;;;;;5.30;100.00;103425.28;5076744;28;20476;-39
2024/01/31 07:24:31;;;;;;;14.97;10.97;;;;;;;5.29;100.00;103429.81;5077282;28;20027;-39
2024/01/31 07:26:56;;;;;;;15.65;10.77;;;;;;;5.29;100.00;103427.13;5076922;28;20739;-39
2024/01/31 07:29:22;;;;;;;14.80;11.00;;;;;;;5.30;100.00;103436.88;5076607;28;20036;-39
2024/01/31 07:31:47;;;;;;;14.20;10.57;;;;;;;5.30;100.00;103431.50;5077189;28;20028;-39
2024/01/31 07:34:12;;;;;;;13.27;10.03;;;;;;;5.30;100.00;103423.47;5076835;28;20622;-39
2024/01/31 07:36:38;;;;;;;15.93;10.53;;;;;;;5.32;100.00;103432.25;5077070;28;20024;-39
2024/01/31 07:39:04;;;;;;;11.00;9.80;;;;;;;5.31;100.00;103441.25;5076354;28;20028;-39
2024/01/31 07:41:30;;;;;;;;;;;;;;;5.37;100.00;103432.69;5076896;28;20473;-39
2024/01/31 07:43:56;;;;;;;16.15;11.45;;;;;;;5.31;100.00;103435.88;5076845;28;19908;-39
2024/01/31 07:46:21;;;;;;;15.47;10.70;;;;;;;5.32;100.00;103440.28;5076911;28;20032;-39
2024/01/31 07:48:46;;;;;;;15.60;10.80;;;;;;;5.30;100.00;103436.03;5076023;28;20036;-39
2024/01/31 07:51:12;;;;;;;17.33;12.63;;;;;;;5.30;100.00;103426.13;5076624;28;20025;-39
2024/01/31 07:53:38;;;;;;;15.03;11.53;;;;;;;5.31;100.00;103433.19;5076477;28;20421;-39
2024/01/31 07:56:04;;;;;;;21.42;11.85;;;;;;;5.31;100.00;103437.72;5076476;28;20049;-39
2024/01/31 07:58:30;;;;;;;17.60;11.93;;;;;;;5.33;100.00;103436.63;5076310;28;20020;-39
2024/01/31 08:00:56;;;;;;;17.10;11.90;;;;;;;5.22;100.00;103414.38;5076384;28;20384;-39
2024/01/31 08:03:21;;;;;;;17.20;11.37;;;;;;;5.35;100.00;103429.28;5076435;28;20124;-39
2024/01/31 08:05:46;;;;;;;15.87;11.63;;;;;;;5.37;100.00;103431.84;5076198;28;20107;-39
2024/01/31 08:08:12;;;;;;;14.63;11.23;;;;;;;5.35;100.00;103436.47;5076433;28;20362;-39
2024/01/31 08:10:38;;;;;;;17.42;10.85;;;;;;;5.36;100.00;103433.66;5076308;28;20071;-39
2024/01/31 08:13:04;;;;;;;17.75;12.43;;;;;;;5.38;100.00;103420.97;5076349;28;20028;-39
2024/01/31 08:15:31;;;;;;;15.40;11.90;;;;;;;5.37;100.00;103421.97;5075971;28;20086;-39
2024/01/31 08:17:57;;;;;;;19.88;12.40;;;;;;;5.34;100.00;103422.22;5075693;28;20056;-39
2024/01/31 08:20:22;;;;;;;13.95;11.93;;;;;;;5.38;100.00;103429.03;5076257;28;20071;-39
2024/01/31 08:22:48;;;;;;;18.10;12.30;;;;;;;5.37;100.00;103424.63;5075601;28;20055;-39
2024/01/31 08:25:13;;;;;;;17.60;13.30;;;;;;;5.37;100.00;103430.00;5076069;28;20039;-39
2024/01/31 08:27:38;;;;;;;15.63;13.10;;;;;;;5.38;100.00;103423.66;5075583;28;20450;-39
2024/01/31 08:30:05;;;;;;;14.77;12.27;;;;;;;5.42;100.00;103424.25;5076294;28;20112;-39
2024/01/31 08:32:34;;;;;;;17.15;12.73;;;;;;;5.38;100.00;103410.22;5075719;28;20066;-39
2024/01/31 08:34:59;;;;;;;18.63;14.00;;;;;;;5.41;100.00;103411.78;5075530;28;20028;-39
2024/01/31 08:37:25;;;;;;;21.95;13.85;;;;;;;5.40;100.00;103408.25;5076283;28;20035;-39
2024/01/31 08:39:50;;;;;;;18.57;14.70;;;;;;;5.35;100.00;103399.75;5075294;28;20028;-39
2024/01/31 08:42:15;;;;;;;19.80;14.03;;;;;;;5.43;100.00;103401.78;5076207;28;20097;-39
2024/01/31 08:44:41;;;;;;;18.83;14.97;;;;;;;5.45;100.00;103398.94;5075729;28;20064;-39
2024/01/31 08:47:06;;;;;;;17.63;13.83;;;;;;;5.41;100.00;103379.59;5075833;28;20028;-39
2024/01/31 08:49:32;;;;;;;19.63;14.50;;;;;;;5.45;100.00;103380.16;5075921;28;20391;-39
2024/01/31 08:51:57;;;;;;;18.70;14.33;;;;;;;5.47;100.00;103381.75;5075483;28;20171;-39
2024/01/31 08:54:22;;;;;;;24.50;15.80;;;;;;;5.43;100.00;103375.78;5075310;28;20366;-39
2024/01/31 08:56:48;;;;;;;19.30;15.13;;;;;;;5.46;100.00;103376.50;5075776;28;20051;-39
2024/01/31 08:59:13;;;;;;;22.57;15.53;;;;;;;5.45;100.00;103366.75;5075222;28;20108;-39
2024/01/31 09:01:48;;;;;;;22.27;16.07;;;;;;;5.53;100.00;103377.66;5075575;28;20079;-39
2024/01/31 09:04:13;;;;;;;18.15;13.95;;;;;;;5.55;100.00;103373.00;5074871;28;20473;-39
2024/01/31 09:06:42;;;;;;;22.70;15.40;;;;;;;5.57;100.00;103368.38;5075915;28;20035;-39
2024/01/31 09:09:08;;;;;;;21.15;14.93;;;;;;;5.57;100.00;103363.00;5075025;28;20032;-39
2024/01/31 09:11:33;;;;;;;23.37;16.83;;;;;;;5.57;100.00;103363.84;5074779;28;20400;-39
2024/01/31 09:13:58;;;;;;;23.77;16.67;;;;;;;5.54;100.00;103348.00;5074633;28;20262;-39
2024/01/31 09:16:24;;;;;;;21.93;15.60;;;;;;;5.59;100.00;103353.81;5075120;28;20476;-39
2024/01/31 09:18:49;;;;;;;24.80;16.17;;;;;;;5.55;100.00;103338.09;5074797;28;20146;-39
2024/01/31 09:21:22;;;;;;;23.15;16.65;;;;;;;5.57;100.00;103328.09;5075329;28;20028;-39
2024/01/31 09:23:48;;;;;;;24.83;17.02;;;;;;;5.65;100.00;103345.19;5074666;28;20028;-39
2024/01/31 09:26:13;;;;;;;25.65;17.85;;;;;;;5.67;100.00;103337.88;5074465;28;20032;-39
2024/01/31 09:28:39;;;;;;;26.85;17.42;;;;;;;5.71;100.00;103338.44;5074279;28;20028;-39
2024/01/31 09:31:04;;;;;;;24.08;17.98;;;;;;;5.71;100.00;103333.06;5074503;28;20055;-39
2024/01/31 09:33:30;;;;;;;25.53;18.30;;;;;;;5.73;100.00;103332.94;5074582;28;20028;-39
2024/01/31 09:35:55;;;;;;;28.23;18.90;;;;;;;5.78;100.00;103333.38;5074912;28;20274;-39
2024/01/31 09:38:21;;;;;;;26.97;18.70;;;;;;;5.74;100.00;103310.47;5074295;28;20024;-39
2024/01/31 09:40:47;;;;;;;25.25;18.60;;;;;;;5.85;100.00;103318.38;5073660;28;20412;-39
2024/01/31 09:43:12;;;;;;;26.63;19.60;;;;;;;5.88;100.00;103313.59;5074588;28;20103;-38
2024/01/31 09:45:39;;;;;;;30.60;20.35;;;;;;;5.79;100.00;103292.09;5074256;28;20052;-39
2024/01/31 09:48:06;;;;;;;28.88;20.23;;;;;;;5.98;100.00;103299.34;5074528;28;20519;-39
2024/01/31 09:50:32;;;;;;;33.00;20.67;;;;;;;6.01;100.00;103302.63;5074417;28;20462;-38
2024/01/31 09:53:01;;;;;;;29.80;20.60;;;;;;;6.02;100.00;103308.84;5074427;28;20028;-38
2024/01/31 09:55:27;;;;;;;29.67;21.77;;;;;;;6.06;100.00;103303.03;5074531;28;20049;-38
2024/01/31 09:57:52;;;;;;;30.45;20.40;;;;;;;6.13;100.00;103306.00;5074697;28;20037;-38
2024/01/31 10:00:18;;;;;;;31.10;21.07;;;;;;;6.14;100.00;103313.91;5074294;28;20056;-39
2024/01/31 10:02:48;;;;;;;29.80;21.10;;;;;;;6.18;100.00;103319.84;5074831;28;20024;-38
2024/01/31 10:05:14;;;;;;;31.35;20.67;;;;;;;6.20;100.00;103325.94;5073911;28;20158;-38
2024/01/31 10:07:40;;;;;;;32.80;21.95;;;;;;;6.22;100.00;103326.66;5073656;28;20435;-38
2024/01/31 10:10:06;;;;;;;28.35;21.15;;;;;;;6.24;100.00;103330.03;5073830;28;20021;-39
2024/01/31 10:12:31;;;;;;;27.63;20.50;;;;;;;6.27;100.00;103331.59;5074086;28;20381;-39
2024/01/31 10:14:56;;;;;;;25.77;20.37;;;;;;;6.23;100.00;103325.66;5074195;28;20025;-39
2024/01/31 10:17:23;;;;;;;27.50;20.83;;;;;;;6.26;100.00;103337.97;5074135;28;20290;-38
2024/01/31 10:19:49;;;;;;;27.20;19.92;;;;;;;6.24;100.00;103342.63;5073615;28;20066;-39
2024/01/31 10:22:14;;;;;;;26.17;19.65;;;;;;;6.25;100.00;103347.03;5074193;28;20111;-39
2024/01/31 10:24:40;;;;;;;23.98;19.08;;;;;;;6.27;100.00;103340.50;5073312;28;20090;-39
2024/01/31 10:27:07;;;;;;;27.10;20.75;;;;;;;6.27;100.00;103350.41;5073606;28;20056;-38
2024/01/31 10:29:33;;;;;;;27.30;19.17;;;;;;;6.31;100.00;103354.50;5073258;28;20472;-38
2024/01/31 10:32:00;;;;;;;24.50;18.27;;;;;;;6.32;100.00;103345.44;5073805;28;20031;-38
2024/01/31 10:34:27;;;;;;;20.63;16.83;;;;;;;6.30;100.00;103345.59;5073824;28;20079;-38
2024/01/31 10:36:54;;;;;;;20.73;17.17;;;;;;;6.24;100.00;103330.03;5074267;28;20334;-39
2024/01/31 10:39:20;;;;;;;22.17;16.65;;;;;;;6.35;100.00;103347.88;5073730;28;20017;-39
2024/01/31 10:41:47;;;;;;;;;;;;;;;6.39;100.00;103350.13;5074743;28;20369;-39
2024/01/31 10:44:14;;;;;;;20.00;15.55;;;;;;;6.31;100.00;103346.44;5073992;28;19908;-39
2024/01/31 10:46:40;;;;;;;20.05;16.58;;;;;;;6.36;100.00;103344.19;5073674;28;20032;-39
2024/01/31 10:49:05;;;;;;;18.25;14.50;;;;;;;6.34;100.00;103344.31;5073362;28;20017;-39
2024/01/31 10:51:33;;;;;;;16.83;14.25;;;;;;;6.36;100.00;103342.34;5073816;28;20449;-39
2024/01/31 10:54:01;;;;;;;17.85;12.93;;;;;;;6.34;100.00;103336.25;5073851;28;20089;-39
2024/01/31 10:56:28;;;;;;;20.63;14.30;;;;;;;6.36;100.00;103336.97;5074227;28;20060;-38
2024/01/31 10:58:57;;;;;;;17.33;13.52;;;;;;;6.37;100.00;103332.44;5073491;28;20073;-39
2024/01/31 11:01:28;;;;;;;16.95;13.25;;;;;;;6.38;100.00;103332.28;5073532;28;20116;-38
2024/01/31 11:03:54;;;;;;;16.77;13.45;;;;;;;6.33;100.00;103307.69;5072916;28;20477;-38
2024/01/31 11:06:19;;;;;;;17.80;13.53;;;;;;;6.34;100.00;103301.31;5072890;28;20113;-38
2024/01/31 11:08:47;;;;;;;14.33;11.53;;;;;;;6.41;100.00;103310.50;5073294;28;20357;-39
2024/01/31 11:11:13;;;;;;;13.70;12.27;;;;;;;6.34;100.00;103290.56;5073699;28;20403;-39
2024/01/31 11:13:38;;;;;;;16.10;12.85;;;;;;;6.43;100.00;103308.50;5073101;28;20028;-39